Time;durP1;ratioP1;P1;durP2;ratioP2;P2;SDS_P1;SDS_P2;PMS_P1;PMS_P2;Temp;Humidity;BMP_temperature;BMP_pressure;BME280_temperature;BME280_humidity;BME280_pressure;Samples;Min_cycle;Max_cycle;Signal;HPM_P1;HPM_P2
2023/08/19 00:00:45;;;;;;;6.22;3.10;;;25.60;92.70;;;;;;1960186;73;21191;-77
2023/08/19 00:03:37;;;;;;;4.80;3.30;;;25.40;93.20;;;;;;1960269;73;21091;-76
2023/08/19 00:06:37;;;;;;;5.50;3.17;;;25.30;93.30;;;;;;1960184;73;21094;-77
2023/08/19 00:09:28;;;;;;;5.17;3.02;;;25.30;93.80;;;;;;1960521;73;21094;-77
2023/08/19 00:12:19;;;;;;;3.42;3.02;;;25.30;94.00;;;;;;1960200;73;21102;-77
2023/08/19 00:15:12;;;;;;;4.80;2.90;;;25.30;94.30;;;;;;1960130;73;21085;-77
2023/08/19 00:18:03;;;;;;;3.00;2.70;;;25.30;94.40;;;;;;1959973;73;21509;-77
2023/08/19 00:20:55;;;;;;;3.70;2.75;;;25.30;94.70;;;;;;1959866;73;21160;-77
2023/08/19 00:23:46;;;;;;;4.00;3.08;;;25.20;95.00;;;;;;1960174;73;21121;-77
2023/08/19 00:26:38;;;;;;;3.45;3.15;;;25.10;95.30;;;;;;1960468;73;21116;-77
2023/08/19 00:29:30;;;;;;;3.98;2.72;;;25.20;95.50;;;;;;1960275;73;21185;-77
2023/08/19 00:32:21;;;;;;;5.83;2.90;;;25.10;95.80;;;;;;1960233;73;21090;-77
2023/08/19 00:35:18;;;;;;;;;;;25.10;96.00;;;;;;1963067;73;21102;-77
2023/08/19 00:38:09;;;;;;;6.10;3.05;;;25.10;95.90;;;;;;1960258;73;20151;-77
2023/08/19 00:41:03;;;;;;;4.65;2.85;;;25.00;96.50;;;;;;1960193;73;21111;-77
2023/08/19 00:43:55;;;;;;;3.62;3.10;;;25.00;96.80;;;;;;1959957;73;21197;-77
2023/08/19 00:46:46;;;;;;;3.92;2.98;;;25.00;97.20;;;;;;1957721;73;21114;-77
2023/08/19 00:49:39;;;;;;;3.67;2.90;;;24.90;97.90;;;;;;1950394;73;21171;-76
2023/08/19 00:52:31;;;;;;;3.72;3.20;;;24.90;98.10;;;;;;1950356;73;21102;-76
2023/08/19 00:55:23;;;;;;;3.52;3.22;;;25.00;98.10;;;;;;1950235;73;21665;-76
2023/08/19 00:58:15;;;;;;;3.52;3.17;;;25.00;98.20;;;;;;1950319;73;21153;-76
2023/08/19 01:01:07;;;;;;;4.60;3.33;;;25.00;98.80;;;;;;1950009;73;21114;-76
2023/08/19 01:03:58;;;;;;;3.27;2.92;;;24.90;99.90;;;;;;1950183;73;21100;-77
2023/08/19 01:06:54;;;;;;;3.25;2.67;;;24.60;99.90;;;;;;1929088;73;21068;-77
2023/08/19 01:09:50;;;;;;;5.55;3.17;;;24.50;99.90;;;;;;1916323;75;21359;-77
2023/08/19 01:12:46;;;;;;;5.15;2.83;;;24.50;99.90;;;;;;1916418;75;21107;-77
2023/08/19 01:15:40;;;;;;;3.45;3.10;;;24.50;99.90;;;;;;1916514;75;21575;-77
2023/08/19 01:18:32;;;;;;;4.45;2.80;;;24.70;99.90;;;;;;1916572;75;21106;-77
2023/08/19 01:21:24;;;;;;;3.92;2.90;;;24.70;99.90;;;;;;1916761;75;21162;-77
2023/08/19 01:24:17;;;;;;;3.35;2.95;;;24.80;99.90;;;;;;1916279;75;21144;-77
2023/08/19 01:27:22;;;;;;;3.35;3.05;;;24.80;99.90;;;;;;1916466;75;21151;-77
2023/08/19 01:30:15;;;;;;;4.10;2.70;;;24.80;99.90;;;;;;1916158;75;21067;-77
2023/08/19 01:33:07;;;;;;;7.03;2.83;;;24.80;99.90;;;;;;1916403;75;21106;-77
2023/08/19 01:36:03;;;;;;;2.92;2.62;;;24.80;99.90;;;;;;1956134;73;21098;-77
2023/08/19 01:38:59;;;;;;;3.62;2.70;;;24.80;99.90;;;;;;1966194;73;21058;-77
2023/08/19 01:41:51;;;;;;;5.05;3.12;;;24.60;99.90;;;;;;1966363;73;21178;-77
2023/08/19 01:44:42;;;;;;;3.87;2.60;;;24.50;99.90;;;;;;1966239;73;21049;-77
2023/08/19 01:47:34;;;;;;;3.42;2.92;;;24.40;99.90;;;;;;1963384;73;21232;-77
2023/08/19 01:50:26;;;;;;;3.87;3.17;;;24.30;99.90;;;;;;1948081;74;21087;-77
2023/08/19 01:53:18;;;;;;;5.37;2.72;;;24.20;99.90;;;;;;1948126;73;21051;-77
2023/08/19 01:56:11;;;;;;;4.60;2.70;;;24.20;99.90;;;;;;1948159;74;21090;-77
2023/08/19 01:59:02;;;;;;;3.30;2.90;;;24.20;99.90;;;;;;1947956;73;21110;-78
2023/08/19 02:01:54;;;;;;;4.25;3.08;;;24.30;99.90;;;;;;1948163;74;21147;-77
2023/08/19 02:04:45;;;;;;;4.78;3.20;;;24.40;99.90;;;;;;1948031;74;21526;-77
2023/08/19 02:07:37;;;;;;;4.33;2.90;;;24.40;99.90;;;;;;1948082;74;21106;-77
2023/08/19 02:10:29;;;;;;;4.03;2.85;;;24.50;99.90;;;;;;1948086;74;21074;-77
2023/08/19 02:13:21;;;;;;;2.98;2.65;;;24.40;99.90;;;;;;1947966;74;21138;-77
2023/08/19 02:16:12;;;;;;;3.33;3.00;;;24.30;99.90;;;;;;1947781;73;21196;-77
2023/08/19 02:19:04;;;;;;;3.00;2.80;;;24.30;99.90;;;;;;1948002;74;21577;-77
2023/08/19 02:21:56;;;;;;;3.92;2.70;;;24.40;99.90;;;;;;1948066;73;21160;-77
2023/08/19 02:24:47;;;;;;;3.12;2.83;;;24.40;99.90;;;;;;1947976;74;21118;-77
2023/08/19 02:27:39;;;;;;;5.35;2.75;;;24.40;99.90;;;;;;1947970;73;21094;-77
2023/08/19 02:30:31;;;;;;;3.15;2.72;;;24.40;99.90;;;;;;1947984;74;21109;-77
2023/08/19 02:33:24;;;;;;;3.95;2.75;;;24.40;99.90;;;;;;1947985;74;23053;-77
2023/08/19 02:36:15;;;;;;;3.00;2.80;;;24.40;99.90;;;;;;1948025;74;21162;-77
2023/08/19 02:39:07;;;;;;;4.50;2.80;;;24.40;99.90;;;;;;1948128;74;21087;-77
2023/08/19 02:41:58;;;;;;;3.47;2.50;;;24.20;99.90;;;;;;1948107;74;21114;-77
2023/08/19 02:44:50;;;;;;;3.15;2.87;;;24.10;99.90;;;;;;1947937;74;21589;-77
2023/08/19 02:47:41;;;;;;;3.45;2.80;;;23.90;99.90;;;;;;1948149;74;21102;-77
2023/08/19 02:50:32;;;;;;;7.67;3.20;;;23.80;99.90;;;;;;1956412;73;21157;-77
2023/08/19 02:53:24;;;;;;;5.17;3.08;;;23.70;99.90;;;;;;1956510;73;21144;-77
2023/08/19 02:56:16;;;;;;;4.58;3.15;;;23.60;99.90;;;;;;1956258;73;21123;-77
2023/08/19 02:59:08;;;;;;;5.10;3.00;;;23.60;99.90;;;;;;1956218;73;21160;-77
2023/08/19 03:02:00;;;;;;;6.10;3.00;;;23.70;99.90;;;;;;1956641;73;21098;-77
2023/08/19 03:04:52;;;;;;;4.17;3.33;;;23.60;99.90;;;;;;1956431;73;21581;-77
2023/08/19 03:07:43;;;;;;;4.25;3.02;;;23.50;99.90;;;;;;1956529;73;21167;-77
2023/08/19 03:10:35;;;;;;;3.27;2.98;;;23.50;99.90;;;;;;1956698;73;21075;-77
2023/08/19 03:13:26;;;;;;;3.35;2.87;;;23.60;99.90;;;;;;1956721;73;21688;-77
2023/08/19 03:16:18;;;;;;;4.87;3.10;;;23.70;99.90;;;;;;1956616;73;21130;-77
2023/08/19 03:19:10;;;;;;;5.87;2.90;;;23.80;99.90;;;;;;1956661;73;21106;-77
2023/08/19 03:22:01;;;;;;;5.62;2.83;;;23.80;99.90;;;;;;1956555;73;21086;-77
2023/08/19 03:24:53;;;;;;;3.70;3.10;;;23.90;99.90;;;;;;1956480;73;21050;-77
2023/08/19 03:27:45;;;;;;;4.85;3.15;;;23.90;99.90;;;;;;1956307;73;21118;-77
2023/08/19 03:30:36;;;;;;;3.67;3.02;;;23.90;99.90;;;;;;1956230;73;21146;-77
2023/08/19 03:33:28;;;;;;;3.75;2.70;;;23.90;99.90;;;;;;1956451;73;21553;-77
2023/08/19 03:36:21;;;;;;;3.45;3.15;;;23.90;99.90;;;;;;1956650;73;21126;-77
2023/08/19 03:39:12;;;;;;;4.12;3.00;;;23.90;99.90;;;;;;1956624;73;21067;-77
2023/08/19 03:42:06;;;;;;;3.02;2.83;;;23.90;99.90;;;;;;1956575;73;21157;-77
2023/08/19 03:44:57;;;;;;;4.20;3.20;;;23.90;99.90;;;;;;1956605;73;21085;-77
2023/08/19 03:47:49;;;;;;;3.33;2.62;;;23.80;99.90;;;;;;1956678;73;21152;-77
2023/08/19 03:50:41;;;;;;;4.08;3.05;;;23.70;99.90;;;;;;1951261;73;21160;-77
2023/08/19 03:53:32;;;;;;;3.22;2.92;;;23.60;99.90;;;;;;1947906;74;21103;-77
2023/08/19 03:56:25;;;;;;;3.55;2.92;;;23.50;99.90;;;;;;1947668;74;21083;-77
2023/08/19 03:59:18;;;;;;;3.52;2.95;;;23.40;99.90;;;;;;1947097;74;21047;-77
2023/08/19 04:02:09;;;;;;;3.52;2.70;;;23.20;99.90;;;;;;1947805;74;21109;-77
2023/08/19 04:05:02;;;;;;;3.45;3.15;;;23.10;99.90;;;;;;1948045;73;21102;-77
2023/08/19 04:07:55;;;;;;;3.58;2.83;;;23.10;99.90;;;;;;1948149;73;21086;-77
2023/08/19 04:10:46;;;;;;;3.52;2.83;;;22.90;99.90;;;;;;1947993;74;21098;-76
2023/08/19 04:13:39;;;;;;;3.10;2.80;;;22.70;99.90;;;;;;1947923;74;21102;-78
2023/08/19 04:16:31;;;;;;;4.17;2.95;;;22.70;99.90;;;;;;1948075;74;21090;-77
2023/08/19 04:19:22;;;;;;;3.55;3.20;;;22.70;99.90;;;;;;1948199;74;21098;-77
2023/08/19 04:22:14;;;;;;;5.25;2.80;;;22.80;99.90;;;;;;1948030;74;21094;-77
2023/08/19 04:25:07;;;;;;;5.60;2.92;;;22.90;99.90;;;;;;1948065;74;21094;-77
2023/08/19 04:27:59;;;;;;;4.65;3.00;;;22.90;99.90;;;;;;1948019;74;21136;-77
2023/08/19 04:30:50;;;;;;;3.10;2.80;;;22.90;99.90;;;;;;1947985;74;21645;-77
2023/08/19 04:33:42;;;;;;;4.87;3.37;;;22.80;99.90;;;;;;1948089;74;21090;-77
2023/08/19 04:36:40;;;;;;;4.33;3.33;;;22.70;99.90;;;;;;1947786;74;21197;-77
2023/08/19 04:39:32;;;;;;;4.30;3.90;;;22.80;99.90;;;;;;1947856;74;21110;-77
2023/08/19 04:42:25;;;;;;;3.65;3.35;;;22.80;99.90;;;;;;1948250;74;21107;-77
2023/08/19 04:45:16;;;;;;;4.42;3.10;;;22.90;99.90;;;;;;1948081;74;21208;-77
2023/08/19 04:48:09;;;;;;;4.65;3.10;;;22.90;99.90;;;;;;1948133;74;21324;-76
2023/08/19 04:51:01;;;;;;;4.15;3.08;;;23.00;99.90;;;;;;1948206;74;21133;-76
2023/08/19 04:53:54;;;;;;;4.55;3.35;;;23.00;99.90;;;;;;1948087;74;21159;-77
2023/08/19 04:56:46;;;;;;;7.25;3.67;;;23.00;99.90;;;;;;1948018;74;21164;-77
2023/08/19 04:59:37;;;;;;;3.45;3.08;;;23.00;99.90;;;;;;1947857;74;21140;-77
2023/08/19 05:02:30;;;;;;;4.92;3.45;;;23.00;99.90;;;;;;1948114;74;21137;-77
2023/08/19 05:05:21;;;;;;;4.25;3.25;;;23.10;99.90;;;;;;1947693;74;21453;-77
2023/08/19 05:08:13;;;;;;;4.53;3.00;;;23.10;99.90;;;;;;1919699;75;21061;-77
2023/08/19 05:11:05;;;;;;;5.35;3.15;;;23.10;99.90;;;;;;1920106;75;21108;-77
2023/08/19 05:13:57;;;;;;;5.22;3.15;;;23.20;99.90;;;;;;1920152;75;21137;-77
2023/08/19 05:16:48;;;;;;;3.60;3.30;;;23.20;99.90;;;;;;1920078;75;21093;-77
2023/08/19 05:19:39;;;;;;;4.05;3.20;;;23.30;99.90;;;;;;1920195;75;21166;-77
2023/08/19 05:22:31;;;;;;;5.55;3.17;;;23.30;99.90;;;;;;1920118;75;21100;-77
2023/08/19 05:25:22;;;;;;;10.60;4.92;;;23.40;99.90;;;;;;1920074;75;21177;-77
2023/08/19 05:28:13;;;;;;;4.37;3.30;;;23.40;99.90;;;;;;1920138;75;21132;-77
2023/08/19 05:31:04;;;;;;;4.37;3.60;;;23.40;99.90;;;;;;1920063;75;21053;-77
2023/08/19 05:33:56;;;;;;;3.80;3.30;;;23.40;99.90;;;;;;1920194;75;21131;-77
2023/08/19 05:36:47;;;;;;;3.50;3.20;;;23.40;99.90;;;;;;1919889;75;21140;-77
2023/08/19 05:39:38;;;;;;;5.67;3.10;;;23.50;99.90;;;;;;1919804;75;21191;-77
2023/08/19 05:42:30;;;;;;;5.70;3.10;;;23.60;99.90;;;;;;1919667;75;21109;-77
2023/08/19 05:45:21;;;;;;;3.95;3.35;;;23.50;99.90;;;;;;1919821;75;21174;-77
2023/08/19 05:48:12;;;;;;;4.37;3.40;;;23.60;99.90;;;;;;1919654;75;21170;-77
2023/08/19 05:51:04;;;;;;;4.75;3.70;;;23.60;99.90;;;;;;1919704;75;21053;-77
2023/08/19 05:54:00;;;;;;;5.40;3.47;;;23.70;99.90;;;;;;1913347;75;21207;-77
2023/08/19 05:56:51;;;;;;;4.67;3.35;;;23.80;99.90;;;;;;1913316;75;21156;-77
2023/08/19 05:59:42;;;;;;;3.90;3.50;;;23.90;99.90;;;;;;1913151;75;21154;-77
2023/08/19 06:02:33;;;;;;;4.78;3.90;;;24.00;99.90;;;;;;1913245;75;21052;-77
2023/08/19 06:05:25;;;;;;;4.65;3.35;;;24.10;99.90;;;;;;1912359;75;21197;-77
2023/08/19 06:08:16;;;;;;;5.30;3.15;;;24.20;99.90;;;;;;1887110;76;21148;-77
2023/08/19 06:11:09;;;;;;;5.70;3.45;;;24.30;99.90;;;;;;1887562;76;21084;-77
2023/08/19 06:14:01;;;;;;;7.00;3.60;;;24.40;99.90;;;;;;1887183;76;21226;-78
2023/08/19 06:16:52;;;;;;;4.75;3.50;;;24.50;99.90;;;;;;1887385;76;21161;-77
2023/08/19 06:19:44;;;;;;;6.42;3.42;;;24.50;99.90;;;;;;1887366;76;21155;-77
2023/08/19 06:22:35;;;;;;;4.22;3.80;;;24.50;99.90;;;;;;1887531;76;21180;-77
2023/08/19 06:25:26;;;;;;;6.10;3.60;;;24.50;99.90;;;;;;1887386;76;21222;-77
2023/08/19 06:28:18;;;;;;;6.00;3.80;;;24.60;99.90;;;;;;1887349;76;21559;-77
2023/08/19 06:31:10;;;;;;;3.85;3.47;;;24.70;99.90;;;;;;1887375;76;21650;-77
2023/08/19 06:34:03;;;;;;;4.20;3.40;;;24.90;99.90;;;;;;1887467;76;21141;-77
2023/08/19 06:36:56;;;;;;;4.55;3.40;;;24.90;99.90;;;;;;1887504;76;21134;-77
2023/08/19 06:39:50;;;;;;;4.83;3.70;;;25.00;99.90;;;;;;1887393;76;21546;-77
2023/08/19 06:42:43;;;;;;;6.05;3.60;;;25.20;99.90;;;;;;1887242;76;21134;-77
2023/08/19 06:45:34;;;;;;;4.80;3.70;;;25.20;99.90;;;;;;1887091;76;21198;-77
2023/08/19 06:48:28;;;;;;;6.65;3.65;;;25.30;99.90;;;;;;1887466;76;21168;-77
2023/08/19 06:51:21;;;;;;;5.90;3.33;;;25.30;99.90;;;;;;1887244;76;21154;-78
2023/08/19 06:54:15;;;;;;;3.80;3.47;;;25.40;99.90;;;;;;1900140;75;21138;-77
2023/08/19 06:57:09;;;;;;;4.87;3.58;;;25.50;99.90;;;;;;1902483;75;21099;-77
2023/08/19 07:00:06;;;;;;;4.05;3.55;;;25.70;99.90;;;;;;1902520;75;21151;-78
2023/08/19 07:02:58;;;;;;;4.42;3.50;;;25.70;99.90;;;;;;1902859;75;21345;-77
2023/08/19 07:05:50;;;;;;;5.50;3.70;;;25.80;99.90;;;;;;1902792;75;21143;-77
2023/08/19 07:08:44;;;;;;;5.45;3.47;;;25.90;99.90;;;;;;1902831;75;21223;-77
2023/08/19 07:11:37;;;;;;;3.95;3.55;;;26.00;99.90;;;;;;1902854;75;21664;-77
2023/08/19 07:14:29;;;;;;;4.03;3.37;;;26.10;99.90;;;;;;1902611;75;21117;-77
2023/08/19 07:17:23;;;;;;;4.62;3.75;;;26.10;99.90;;;;;;1902558;75;21184;-77
2023/08/19 07:20:17;;;;;;;7.47;3.70;;;26.00;99.90;;;;;;1902513;75;21059;-77
2023/08/19 07:23:10;;;;;;;5.10;4.08;;;26.00;99.90;;;;;;1902700;75;21161;-77
2023/08/19 07:26:03;;;;;;;6.50;3.85;;;25.90;99.90;;;;;;1902840;75;21249;-77
2023/08/19 07:28:55;;;;;;;5.60;3.77;;;25.90;99.90;;;;;;1902519;75;21125;-77
2023/08/19 07:31:49;;;;;;;4.45;3.50;;;25.90;99.90;;;;;;1902804;75;21110;-77
2023/08/19 07:34:40;;;;;;;4.55;3.35;;;26.00;99.90;;;;;;1902500;75;21099;-77
2023/08/19 07:37:33;;;;;;;6.15;3.77;;;26.00;99.90;;;;;;1902287;75;21111;-77
2023/08/19 07:40:24;;;;;;;5.30;3.62;;;26.10;99.90;;;;;;1901959;75;21093;-77
2023/08/19 07:43:16;;;;;;;7.47;3.60;;;26.10;99.90;;;;;;1902209;75;21132;-77
2023/08/19 07:46:07;;;;;;;4.72;3.47;;;26.10;99.90;;;;;;1902038;75;21426;-77
2023/08/19 07:48:59;;;;;;;4.92;3.42;;;26.20;99.90;;;;;;1902059;75;21067;-77
2023/08/19 07:51:50;;;;;;;6.12;3.98;;;26.10;99.90;;;;;;1902425;75;21136;-77
2023/08/19 07:54:43;;;;;;;4.35;3.95;;;26.20;99.90;;;;;;1902846;75;21225;-77
2023/08/19 07:57:36;;;;;;;7.22;3.80;;;26.20;99.90;;;;;;1902656;75;21111;-77
2023/08/19 08:00:27;;;;;;;4.60;3.95;;;26.30;99.90;;;;;;1902497;75;21161;-77
2023/08/19 08:03:19;;;;;;;6.83;3.90;;;26.40;99.90;;;;;;1902755;75;21051;-77
2023/08/19 08:06:11;;;;;;;5.70;3.27;;;26.50;99.90;;;;;;1908458;75;21075;-77
2023/08/19 08:09:04;;;;;;;4.47;4.00;;;26.60;99.90;;;;;;1919676;75;21123;-77
2023/08/19 08:11:55;;;;;;;3.75;3.45;;;26.70;99.90;;;;;;1919679;75;21083;-77
2023/08/19 08:14:46;;;;;;;4.28;3.85;;;26.90;99.90;;;;;;1919489;75;21132;-77
2023/08/19 08:17:38;;;;;;;4.12;3.72;;;27.00;99.90;;;;;;1919687;75;21124;-77
2023/08/19 08:20:29;;;;;;;5.60;3.67;;;27.10;99.90;;;;;;1919824;75;21068;-78
2023/08/19 08:23:21;;;;;;;3.85;3.55;;;27.20;99.90;;;;;;1919648;75;21099;-77
2023/08/19 08:26:13;;;;;;;5.53;3.83;;;27.30;99.90;;;;;;1919713;75;21124;-77
2023/08/19 08:29:04;;;;;;;5.72;3.55;;;27.30;99.90;;;;;;1919308;75;21540;-77
2023/08/19 08:31:56;;;;;;;4.83;3.55;;;27.30;99.90;;;;;;1919621;75;21776;-78
2023/08/19 08:34:47;;;;;;;6.75;3.90;;;27.40;99.90;;;;;;1919716;75;21111;-77
2023/08/19 08:37:39;;;;;;;4.40;4.00;;;27.40;99.90;;;;;;1919715;75;21550;-77
2023/08/19 08:40:32;;;;;;;6.17;3.98;;;27.50;99.90;;;;;;1919614;75;21104;-77
2023/08/19 08:43:25;;;;;;;6.90;3.90;;;27.60;99.90;;;;;;1919501;75;21126;-77
2023/08/19 08:46:17;;;;;;;4.20;3.80;;;27.70;99.90;;;;;;1919757;75;21137;-77
2023/08/19 08:49:10;;;;;;;6.30;3.90;;;27.70;99.90;;;;;;1919690;75;21104;-77
2023/08/19 08:52:03;;;;;;;4.97;3.58;;;27.70;99.90;;;;;;1919741;75;21103;-77
2023/08/19 08:54:55;;;;;;;3.87;3.47;;;27.80;99.90;;;;;;1918652;74;21119;-77
2023/08/19 08:57:46;;;;;;;5.03;3.83;;;27.90;99.90;;;;;;1916095;75;21115;-77
2023/08/19 09:00:40;;;;;;;7.10;3.98;;;28.00;99.90;;;;;;1916116;75;21099;-77
2023/08/19 09:03:34;;;;;;;4.53;3.80;;;28.10;99.90;;;;;;1916059;75;21150;-77
2023/08/19 09:06:25;;;;;;;4.87;3.90;;;28.20;99.90;;;;;;1916109;75;21088;-77
2023/08/19 09:09:19;;;;;;;4.62;3.33;;;28.20;99.90;;;;;;1915717;75;21232;-77
2023/08/19 09:12:13;;;;;;;4.90;4.30;;;28.30;99.90;;;;;;1915889;75;21161;-77
2023/08/19 09:15:07;;;;;;;4.05;3.65;;;28.30;99.90;;;;;;1915453;75;21169;-77
2023/08/19 09:18:00;;;;;;;3.67;3.30;;;28.40;99.90;;;;;;1915660;75;21230;-83
2023/08/19 09:20:52;;;;;;;4.35;3.95;;;28.50;99.90;;;;;;1916153;75;21122;-83
2023/08/19 09:23:44;;;;;;;4.80;3.45;;;28.60;99.90;;;;;;1916144;75;21171;-83
2023/08/19 09:26:37;;;;;;;3.65;3.20;;;28.70;99.90;;;;;;1916126;75;21247;-84
2023/08/19 09:29:29;;;;;;;8.50;3.55;;;28.70;99.90;;;;;;1916301;75;21142;-79
2023/08/19 09:32:30;;;;;;;5.10;3.65;;;28.80;99.90;;;;;;1916144;75;21702;-83
2023/08/19 09:35:23;;;;;;;3.75;3.35;;;28.90;99.90;;;;;;1916281;75;21103;-85
2023/08/19 09:38:23;;;;;;;4.47;4.08;;;28.90;99.90;;;;;;1916179;75;21661;-77
2023/08/19 09:41:15;;;;;;;5.55;3.47;;;28.90;99.10;;;;;;1916161;75;21226;-77
2023/08/19 09:44:13;;;;;;;6.08;3.60;;;29.00;98.30;;;;;;1916153;75;21118;-77
2023/08/19 09:47:06;;;;;;;5.87;3.70;;;29.00;98.30;;;;;;1916116;75;21064;-77
2023/08/19 09:49:59;;;;;;;4.53;3.83;;;29.10;98.10;;;;;;1915915;75;21115;-77
2023/08/19 09:52:58;;;;;;;5.92;3.50;;;29.10;98.50;;;;;;1916221;75;21182;-77
2023/08/19 09:55:51;;;;;;;5.92;3.77;;;29.20;98.50;;;;;;1912611;75;21093;-77
2023/08/19 09:58:43;;;;;;;4.72;4.08;;;29.20;98.50;;;;;;1903755;75;21644;-77
2023/08/19 10:01:36;;;;;;;3.90;3.60;;;29.30;98.20;;;;;;1916140;75;21101;-77
2023/08/19 10:04:27;;;;;;;4.78;3.90;;;29.30;98.00;;;;;;1916098;75;21103;-78
2023/08/19 10:07:22;;;;;;;5.92;3.62;;;29.40;97.90;;;;;;1916051;75;21064;-79
2023/08/19 10:10:14;;;;;;;4.05;3.75;;;29.50;97.80;;;;;;1916343;75;21095;-78
2023/08/19 10:13:07;;;;;;;4.15;3.67;;;29.60;97.30;;;;;;1916356;75;21615;-78
2023/08/19 10:16:01;;;;;;;4.17;3.60;;;29.70;96.60;;;;;;1916457;75;21151;-78
2023/08/19 10:18:54;;;;;;;3.75;3.27;;;29.80;95.90;;;;;;1916266;75;21119;-78
2023/08/19 10:21:47;;;;;;;4.33;3.83;;;29.90;95.20;;;;;;1916391;75;21110;-78
2023/08/19 10:24:41;;;;;;;3.95;3.27;;;30.00;94.90;;;;;;1904026;75;21155;-78
2023/08/19 10:27:33;;;;;;;5.97;3.52;;;30.00;94.10;;;;;;1904133;75;21096;-78
2023/08/19 10:30:31;;;;;;;8.13;3.85;;;30.10;94.00;;;;;;1904071;75;21130;-78
2023/08/19 10:33:37;;;;;;;8.08;4.45;;;30.20;94.50;;;;;;1904042;75;21100;-78
2023/08/19 10:36:29;;;;;;;6.58;4.85;;;30.30;94.50;;;;;;1904053;75;21173;-78
2023/08/19 10:39:21;;;;;;;7.20;4.00;;;30.40;94.70;;;;;;1904009;75;21098;-78
2023/08/19 10:42:15;;;;;;;9.33;4.50;;;30.50;94.70;;;;;;1916322;75;21111;-78
2023/08/19 10:45:15;;;;;;;7.92;4.10;;;30.60;93.80;;;;;;1916152;75;21235;-78
2023/08/19 10:48:07;;;;;;;6.70;4.20;;;30.60;93.40;;;;;;1916284;75;21107;-78
2023/08/19 10:50:59;;;;;;;5.22;4.42;;;30.70;93.10;;;;;;1916172;75;21161;-78
2023/08/19 10:53:53;;;;;;;7.00;4.37;;;30.80;93.00;;;;;;1916223;75;21107;-78
2023/08/19 10:56:53;;;;;;;9.18;4.35;;;30.90;93.10;;;;;;1904010;75;21180;-78
2023/08/19 10:59:45;;;;;;;5.92;4.15;;;30.90;93.40;;;;;;1903805;75;21057;-78
2023/08/19 11:02:36;;;;;;;5.67;3.98;;;31.10;93.30;;;;;;1904039;75;21111;-78
2023/08/19 11:05:28;;;;;;;8.48;4.12;;;31.20;93.10;;;;;;1904014;75;21149;-78
2023/08/19 11:08:20;;;;;;;5.97;4.00;;;31.30;92.50;;;;;;1903870;75;21088;-78
2023/08/19 11:11:17;;;;;;;6.10;3.80;;;31.40;91.90;;;;;;1904045;75;21208;-78
2023/08/19 11:14:08;;;;;;;5.70;3.83;;;31.50;91.80;;;;;;1903814;75;21628;-78
2023/08/19 11:17:02;;;;;;;3.83;3.52;;;31.60;91.20;;;;;;1903368;75;21147;-78
2023/08/19 11:19:53;;;;;;;7.80;3.65;;;31.60;91.00;;;;;;1903341;75;21645;-78
2023/08/19 11:22:45;;;;;;;5.70;3.00;;;31.70;91.00;;;;;;1903861;75;21155;-78
2023/08/19 11:25:39;;;;;;;4.58;2.83;;;31.80;90.50;;;;;;1904124;75;21131;-78
2023/08/19 11:28:32;;;;;;;5.03;3.22;;;31.90;90.10;;;;;;1904018;75;21116;-78
2023/08/19 11:31:24;;;;;;;6.22;2.90;;;31.90;89.30;;;;;;1903952;75;21230;-78
2023/08/19 11:34:15;;;;;;;4.45;3.00;;;32.10;87.30;;;;;;1903756;75;21068;-78
2023/08/19 11:37:07;;;;;;;6.22;3.20;;;32.20;87.10;;;;;;1903459;75;21634;-78
2023/08/19 11:39:59;;;;;;;7.37;3.10;;;32.30;86.30;;;;;;1903742;75;21112;-78
2023/08/19 11:42:52;;;;;;;7.83;3.10;;;32.40;86.40;;;;;;1916435;75;21115;-78
2023/08/19 11:45:43;;;;;;;4.20;2.90;;;32.60;85.70;;;;;;1916213;75;21099;-78
2023/08/19 11:48:36;;;;;;;4.12;3.08;;;32.70;84.10;;;;;;1903833;75;21146;-77
2023/08/19 11:51:28;;;;;;;4.58;3.00;;;32.70;82.40;;;;;;1904161;75;21170;-78
2023/08/19 11:54:19;;;;;;;5.03;2.70;;;32.80;81.10;;;;;;1903952;75;21072;-78
2023/08/19 11:57:12;;;;;;;4.28;3.50;;;33.00;79.70;;;;;;1904463;75;21169;-78
2023/08/19 12:00:05;;;;;;;3.27;2.70;;;33.10;78.70;;;;;;1916140;75;21210;-78
2023/08/19 12:03:04;;;;;;;3.83;2.67;;;33.20;77.60;;;;;;1916256;75;21143;-78
2023/08/19 12:05:55;;;;;;;5.50;3.37;;;33.30;76.10;;;;;;1916534;75;21496;-77
2023/08/19 12:08:48;;;;;;;3.90;2.92;;;33.40;76.00;;;;;;1916257;75;21324;-78
2023/08/19 12:11:39;;;;;;;3.67;2.70;;;33.50;75.50;;;;;;1916344;75;21225;-79
2023/08/19 12:14:31;;;;;;;3.40;2.72;;;33.50;75.60;;;;;;1916299;75;21118;-78
2023/08/19 12:17:22;;;;;;;2.95;2.40;;;33.70;74.60;;;;;;1916377;75;21112;-78
2023/08/19 12:20:14;;;;;;;6.22;2.77;;;33.80;72.70;;;;;;1916361;75;21095;-78
2023/08/19 12:23:05;;;;;;;5.50;2.50;;;33.90;71.30;;;;;;1916274;75;21262;-79
2023/08/19 12:25:58;;;;;;;2.62;2.25;;;34.00;71.50;;;;;;1915895;75;21169;-78
2023/08/19 12:28:50;;;;;;;3.40;2.33;;;34.00;69.50;;;;;;1915871;75;21063;-79
2023/08/19 12:31:42;;;;;;;2.67;2.47;;;34.00;69.10;;;;;;1916120;75;21099;-79
2023/08/19 12:34:34;;;;;;;3.10;2.33;;;34.00;68.70;;;;;;1916005;75;21201;-78
2023/08/19 12:37:26;;;;;;;3.85;2.50;;;34.20;67.30;;;;;;1916052;75;21064;-78
2023/08/19 12:40:17;;;;;;;2.92;2.40;;;34.20;66.30;;;;;;1915958;75;21721;-77
2023/08/19 12:43:10;;;;;;;2.80;2.27;;;34.30;66.50;;;;;;1915900;75;21104;-78
2023/08/19 12:46:01;;;;;;;4.12;2.40;;;34.30;64.90;;;;;;1916164;75;21563;-76
2023/08/19 12:48:53;;;;;;;4.40;2.42;;;34.40;65.20;;;;;;1916220;75;21189;-76
2023/08/19 12:51:45;;;;;;;3.55;2.10;;;34.50;65.40;;;;;;1916114;75;21628;-76
2023/08/19 12:54:36;;;;;;;2.75;2.30;;;34.50;64.40;;;;;;1916246;75;21575;-76
2023/08/19 12:57:27;;;;;;;4.47;2.42;;;34.60;63.90;;;;;;1916284;75;21657;-76
2023/08/19 13:00:20;;;;;;;5.60;2.40;;;34.60;63.30;;;;;;1904597;75;21194;-77
2023/08/19 13:03:11;;;;;;;6.60;2.77;;;34.60;64.00;;;;;;1903915;75;21575;-76
2023/08/19 13:06:04;;;;;;;6.03;2.10;;;34.70;63.80;;;;;;1903758;75;21335;-76
2023/08/19 13:08:56;;;;;;;6.70;2.47;;;34.70;63.00;;;;;;1903718;75;21142;-78
2023/08/19 13:11:47;;;;;;;7.37;2.55;;;34.80;61.80;;;;;;1903638;75;21147;-76
2023/08/19 13:14:42;;;;;;;6.35;2.60;;;34.70;61.80;;;;;;1903721;75;21300;-76
2023/08/19 13:17:33;;;;;;;8.15;2.45;;;34.90;62.70;;;;;;1903855;75;21201;-76
2023/08/19 13:20:26;;;;;;;6.67;2.92;;;35.00;62.30;;;;;;1903774;75;21287;-76
2023/08/19 13:23:18;;;;;;;6.67;2.35;;;34.90;62.50;;;;;;1915984;75;21111;-76
2023/08/19 13:26:09;;;;;;;4.80;2.40;;;34.90;62.30;;;;;;1916134;75;21129;-76
2023/08/19 13:29:00;;;;;;;9.13;2.92;;;34.90;61.80;;;;;;1916064;75;21611;-76
2023/08/19 13:31:52;;;;;;;8.65;2.72;;;35.00;60.80;;;;;;1916176;75;21103;-77
2023/08/19 13:34:44;;;;;;;9.25;2.92;;;35.10;61.60;;;;;;1929786;73;21134;-76
2023/08/19 13:37:35;;;;;;;7.47;2.40;;;35.10;60.50;;;;;;1965632;73;21117;-76
2023/08/19 13:40:26;;;;;;;8.40;3.15;;;35.10;60.40;;;;;;1965473;73;21150;-77
2023/08/19 13:43:17;;;;;;;10.10;2.98;;;35.10;60.00;;;;;;1965230;73;21653;-76
2023/08/19 13:46:08;;;;;;;4.67;2.42;;;35.20;60.00;;;;;;1965080;73;21078;-77
2023/08/19 13:48:59;;;;;;;7.53;2.90;;;35.20;59.70;;;;;;1965187;73;21061;-76
2023/08/19 13:51:51;;;;;;;7.10;2.37;;;35.20;59.80;;;;;;1965680;73;21097;-76
2023/08/19 13:54:43;;;;;;;6.97;2.67;;;35.40;59.50;;;;;;1965744;73;21109;-76
2023/08/19 13:57:34;;;;;;;8.28;2.90;;;35.50;59.90;;;;;;1965744;73;21079;-76
2023/08/19 14:00:33;;;;;;;6.28;2.80;;;35.60;59.50;;;;;;1959214;73;21202;-76
2023/08/19 14:03:32;;;;;;;8.40;2.70;;;35.70;59.30;;;;;;1954477;73;21133;-77
2023/08/19 14:06:24;;;;;;;9.78;2.92;;;35.80;59.10;;;;;;1954317;73;21163;-76
2023/08/19 14:09:15;;;;;;;5.83;2.90;;;36.30;58.50;;;;;;1954256;73;21127;-77
2023/08/19 14:12:10;;;;;;;6.40;2.42;;;36.50;57.00;;;;;;1954234;73;21106;-77
2023/08/19 14:15:03;;;;;;;6.90;2.60;;;36.70;56.00;;;;;;1954125;73;21549;-77
2023/08/19 14:17:55;;;;;;;6.35;2.60;;;36.90;56.00;;;;;;1954065;73;21090;-77
2023/08/19 14:20:46;;;;;;;6.83;2.98;;;37.20;55.20;;;;;;1954150;73;21043;-76
2023/08/19 14:23:39;;;;;;;5.78;2.60;;;37.40;54.30;;;;;;1954044;73;21094;-77
2023/08/19 14:26:31;;;;;;;10.50;3.00;;;37.40;53.80;;;;;;1954060;73;21043;-77
2023/08/19 14:29:22;;;;;;;10.98;2.47;;;37.40;53.60;;;;;;1954058;73;21184;-77
2023/08/19 14:32:13;;;;;;;8.48;2.60;;;37.80;53.40;;;;;;1954120;73;21390;-77
2023/08/19 14:35:06;;;;;;;7.25;2.75;;;37.90;52.70;;;;;;1954232;73;21047;-76
2023/08/19 14:37:57;;;;;;;7.03;2.95;;;37.90;52.10;;;;;;1954177;73;21136;-77
2023/08/19 14:40:49;;;;;;;7.78;2.72;;;38.10;52.50;;;;;;1954039;73;21102;-78
2023/08/19 14:43:40;;;;;;;6.33;2.37;;;38.20;51.40;;;;;;1954028;73;21104;-76
2023/08/19 14:46:31;;;;;;;8.20;2.58;;;38.10;50.20;;;;;;1953989;73;21097;-78
2023/08/19 14:49:23;;;;;;;6.22;2.42;;;38.30;50.80;;;;;;1954091;73;21106;-79
2023/08/19 14:52:16;;;;;;;6.83;2.52;;;38.50;50.00;;;;;;1954131;73;21149;-77
2023/08/19 14:55:08;;;;;;;5.80;2.45;;;38.60;49.90;;;;;;1953792;73;21154;-77
2023/08/19 14:58:01;;;;;;;10.95;2.55;;;38.70;50.40;;;;;;1953723;73;21109;-78